Time;durP1;ratioP1;P1;durP2;ratioP2;P2;SDS_P1;SDS_P2;PMS_P1;PMS_P2;Temp;Humidity;BMP_temperature;BMP_pressure;BME280_temperature;BME280_humidity;BME280_pressure;Samples;Min_cycle;Max_cycle;Signal;HPM_P1;HPM_P2
2022/08/14 00:01:44;;;;;;;13.60;11.80;;;;;;;24.60;57.91;99737.73;117326;1186;21852;-70
2022/08/14 00:04:22;;;;;;;14.20;12.70;;;;;;;24.62;57.81;99737.81;117312;1185;23307;-59
2022/08/14 00:07:07;;;;;;;17.80;12.90;;;;;;;24.63;57.84;99734.29;117326;1186;21938;-70
2022/08/14 00:09:34;;;;;;;13.40;12.00;;;;;;;24.63;57.94;99737.14;117319;1183;23686;-59
2022/08/14 00:12:22;;;;;;;16.70;12.00;;;;;;;24.57;57.89;99735.68;117266;1182;22998;-69
2022/08/14 00:14:59;;;;;;;14.00;12.20;;;;;;;24.54;58.04;99732.00;117265;1186;21958;-69
2022/08/14 00:17:28;;;;;;;14.40;11.30;;;;;;;24.51;58.20;99734.52;117326;1186;22915;-69
2022/08/14 00:19:57;;;;;;;14.70;13.20;;;;;;;24.49;58.08;99734.17;117326;1186;22151;-58
2022/08/14 00:22:25;;;;;;;13.40;12.10;;;;;;;24.46;58.25;99735.86;117305;1185;21867;-59
2022/08/14 00:25:12;;;;;;;13.70;11.70;;;;;;;24.42;58.21;99734.02;117312;1183;22927;-69
2022/08/14 00:27:41;;;;;;;13.70;12.20;;;;;;;24.40;58.22;99731.90;117338;1186;22915;-59
2022/08/14 00:30:09;;;;;;;13.70;11.70;;;;;;;24.38;58.32;99734.37;117435;1186;23650;-69
2022/08/14 00:32:40;;;;;;;14.60;11.40;;;;;;;24.35;58.38;99735.09;117395;1182;23451;-59
2022/08/14 00:35:22;;;;;;;12.90;11.60;;;;;;;24.32;58.49;99739.96;117328;1186;22095;-69
2022/08/14 00:38:09;;;;;;;13.50;12.00;;;;;;;24.31;58.50;99739.52;117277;1183;22989;-59
2022/08/14 00:40:36;;;;;;;13.40;12.00;;;;;;;24.31;58.37;99734.15;117216;1181;22081;-69
2022/08/14 00:43:04;;;;;;;13.40;11.50;;;;;;;24.29;58.57;99737.95;117153;1185;22001;-58
2022/08/14 00:45:32;;;;;;;15.80;12.20;;;;;;;24.26;58.67;99735.52;117370;1183;21858;-59
2022/08/14 00:47:59;;;;;;;14.10;12.10;;;;;;;24.24;58.67;99733.31;117373;1182;23580;-70
2022/08/14 00:50:29;;;;;;;16.50;13.50;;;;;;;24.23;58.65;99729.83;117305;1182;22284;-69
2022/08/14 00:52:58;;;;;;;16.40;13.10;;;;;;;24.21;58.73;99725.13;117143;1186;22940;-58
2022/08/14 00:55:29;;;;;;;19.40;12.50;;;;;;;24.18;58.79;99720.99;117367;1183;23925;-69
2022/08/14 01:00:44;;;;;;;13.20;11.50;;;;;;;24.13;59.13;99708.55;117160;1185;22040;-59
2022/08/14 01:03:18;;;;;;;14.10;11.60;;;;;;;24.07;58.98;99711.50;117288;1186;21982;-59
2022/08/14 01:05:48;;;;;;;14.80;12.30;;;;;;;24.04;59.10;99716.55;117361;1182;21904;-69
2022/08/14 01:08:19;;;;;;;13.80;11.70;;;;;;;24.03;59.23;99715.38;117175;1188;23437;-69
2022/08/14 01:11:06;;;;;;;13.90;11.20;;;;;;;24.01;59.37;99706.24;117074;1182;22650;-59
2022/08/14 01:13:37;;;;;;;17.10;11.70;;;;;;;23.98;59.39;99703.45;117187;1186;21861;-59
2022/08/14 01:16:13;;;;;;;13.00;11.10;;;;;;;23.97;59.47;99707.80;117132;1186;21987;-69
2022/08/14 01:21:35;;;;;;;13.30;11.20;;;;;;;23.97;59.53;99697.26;117154;1187;23045;-59
2022/08/14 01:24:15;;;;;;;15.90;11.70;;;;;;;23.98;59.47;99694.11;117139;1185;21857;-69
2022/08/14 01:26:58;;;;;;;14.00;11.70;;;;;;;24.00;59.45;99687.87;117155;1187;22928;-59
2022/08/14 01:29:28;;;;;;;15.20;12.10;;;;;;;24.01;59.58;99682.04;117217;1186;21878;-59
2022/08/14 01:32:20;;;;;;;24.00;12.40;;;;;;;24.02;59.84;99674.80;117126;1183;23621;-59
2022/08/14 01:34:52;;;;;;;15.80;11.10;;;;;;;24.01;59.71;99673.49;117170;1183;21859;-70
2022/08/14 01:37:39;;;;;;;14.60;12.30;;;;;;;23.99;59.81;99677.42;117182;1182;21865;-70
2022/08/14 01:40:10;;;;;;;15.60;12.70;;;;;;;23.97;59.81;99676.61;117175;1182;21852;-69
2022/08/14 01:42:42;;;;;;;14.60;12.10;;;;;;;23.97;59.75;99672.52;117055;1187;21977;-70
2022/08/14 01:45:13;;;;;;;13.60;12.10;;;;;;;23.96;59.92;99667.03;117328;1186;21871;-69
2022/08/14 01:47:51;;;;;;;15.10;11.60;;;;;;;23.95;59.83;99669.27;117151;1186;22070;-69
2022/08/14 01:50:30;;;;;;;14.60;11.90;;;;;;;23.95;59.73;99665.16;117132;1182;21867;-70
2022/08/14 01:52:59;;;;;;;17.00;12.20;;;;;;;23.96;59.75;99664.73;117192;1186;21974;-59
2022/08/14 01:55:30;;;;;;;16.20;11.80;;;;;;;23.96;59.87;99672.20;117289;1186;21859;-70
2022/08/14 01:57:58;;;;;;;18.60;12.20;;;;;;;23.96;59.97;99674.89;117113;1186;22925;-59
2022/08/14 02:00:45;;;;;;;16.30;12.40;;;;;;;23.95;59.92;99678.20;117114;1186;21916;-59
2022/08/14 02:03:15;;;;;;;15.10;11.90;;;;;;;23.94;59.79;99680.43;117149;1187;21859;-70
2022/08/14 02:05:42;;;;;;;13.60;11.90;;;;;;;23.94;59.90;99684.73;117160;1186;22095;-70
2022/08/14 02:08:09;;;;;;;14.90;12.10;;;;;;;23.94;60.03;99689.23;117190;1186;23970;-70
2022/08/14 02:10:40;;;;;;;14.20;12.20;;;;;;;23.95;60.00;99686.98;117127;1182;21943;-70
2022/08/14 02:13:14;;;;;;;14.10;12.40;;;;;;;23.95;60.20;99690.77;117283;1186;23554;-59
2022/08/14 02:15:42;;;;;;;14.90;12.70;;;;;;;23.98;60.19;99692.51;117401;1182;22994;-70
2022/08/14 02:18:10;;;;;;;17.30;12.60;;;;;;;24.00;60.16;99687.17;117120;1182;22619;-70
2022/08/14 02:20:40;;;;;;;20.60;13.30;;;;;;;23.99;60.17;99684.20;117204;1182;22777;-72
2022/08/14 02:23:08;;;;;;;15.50;12.10;;;;;;;24.00;60.05;99687.71;117331;1185;21855;-60
2022/08/14 02:25:37;;;;;;;19.30;13.10;;;;;;;24.02;60.21;99689.35;117296;1182;21847;-68
2022/08/14 02:28:05;;;;;;;16.90;13.60;;;;;;;24.03;60.07;99686.05;117317;1185;23554;-68
2022/08/14 02:30:52;;;;;;;18.40;12.80;;;;;;;24.03;60.08;99687.99;117308;1185;23554;-58
2022/08/14 02:33:21;;;;;;;17.30;13.70;;;;;;;24.03;60.13;99691.92;117327;1185;21891;-69
2022/08/14 02:35:48;;;;;;;21.20;13.70;;;;;;;24.05;59.97;99689.31;117316;1185;21868;-61
2022/08/14 02:38:23;;;;;;;20.00;12.90;;;;;;;24.06;60.22;99690.64;117129;1182;21858;-70
2022/08/14 02:40:59;;;;;;;19.10;13.50;;;;;;;24.05;60.08;99686.40;117343;1185;22157;-62
2022/08/14 02:43:28;;;;;;;16.20;13.40;;;;;;;24.03;60.07;99682.25;117086;1186;22955;-59
2022/08/14 02:46:07;;;;;;;18.10;13.70;;;;;;;24.04;60.20;99684.17;117159;1182;21878;-59
2022/08/14 02:48:41;;;;;;;16.50;13.30;;;;;;;24.03;60.21;99685.67;117165;1182;22940;-60
2022/08/14 02:51:28;;;;;;;18.10;13.60;;;;;;;24.04;60.18;99686.33;117303;1185;21866;-59
2022/08/14 02:53:57;;;;;;;15.80;13.50;;;;;;;24.03;59.99;99682.77;117430;1186;21864;-69
2022/08/14 02:56:26;;;;;;;19.10;14.30;;;;;;;24.04;60.05;99682.77;117334;1183;23579;-69
2022/08/14 02:59:14;;;;;;;15.50;12.50;;;;;;;24.02;60.09;99680.91;117338;1185;23553;-69
2022/08/14 03:01:42;;;;;;;16.10;13.20;;;;;;;24.02;60.14;99681.08;117334;1186;22679;-59
2022/08/14 03:04:20;;;;;;;20.70;13.90;;;;;;;24.01;60.08;99678.85;117085;1183;23465;-69
2022/08/14 03:06:48;;;;;;;17.70;13.20;;;;;;;23.98;60.16;99678.16;117294;1186;22722;-69
2022/08/14 03:09:32;;;;;;;15.60;13.60;;;;;;;23.97;60.09;99680.26;117655;1186;21855;-69
2022/08/14 03:12:20;;;;;;;14.90;13.20;;;;;;;23.94;60.09;99673.44;117447;1185;21965;-70
2022/08/14 03:14:58;;;;;;;18.60;13.90;;;;;;;23.92;60.24;99663.55;117112;1188;21864;-58
2022/08/14 03:17:25;;;;;;;26.20;14.90;;;;;;;23.91;60.36;99670.48;117343;1182;23628;-69
2022/08/14 03:20:09;;;;;;;19.20;13.30;;;;;;;23.90;60.36;99671.46;117080;1186;21901;-69
2022/08/14 03:22:38;;;;;;;24.20;14.10;;;;;;;23.90;60.51;99667.86;117409;1185;21867;-69
2022/08/14 03:25:09;;;;;;;16.10;13.80;;;;;;;23.89;60.45;99664.35;117324;1186;23547;-70
2022/08/14 03:27:37;;;;;;;14.80;13.10;;;;;;;23.88;60.38;99664.08;117343;1182;23360;-69
2022/08/14 03:30:25;;;;;;;16.80;13.00;;;;;;;23.87;60.21;99660.42;117132;1183;21870;-69
2022/08/14 03:33:10;;;;;;;16.40;13.60;;;;;;;23.86;60.39;99656.15;117309;1186;21858;-69
2022/08/14 03:35:39;;;;;;;18.00;14.30;;;;;;;23.87;60.43;99655.05;117334;1185;23495;-69
2022/08/14 03:38:25;;;;;;;15.70;13.30;;;;;;;23.86;60.51;99650.04;117076;1182;21918;-59
2022/08/14 03:41:15;;;;;;;16.20;13.40;;;;;;;23.87;60.40;99644.98;117064;1188;21901;-59
2022/08/14 03:43:46;;;;;;;17.90;14.30;;;;;;;23.87;60.72;99643.02;117198;1187;21861;-70
2022/08/14 03:46:28;;;;;;;17.60;14.60;;;;;;;23.86;60.64;99637.21;117105;1188;21876;-59
2022/08/14 03:49:22;;;;;;;16.00;14.20;;;;;;;23.85;60.72;99637.23;117150;1186;21887;-59
2022/08/14 03:51:56;;;;;;;20.70;14.60;;;;;;;23.87;60.69;99641.05;117301;1184;21865;-59
2022/08/14 03:54:27;;;;;;;17.40;14.40;;;;;;;23.89;60.80;99635.67;117318;1186;22994;-69
2022/08/14 03:56:59;;;;;;;18.90;15.30;;;;;;;23.91;60.99;99628.72;117329;1183;21858;-70
2022/08/14 03:59:30;;;;;;;19.90;15.20;;;;;;;23.94;61.02;99626.56;117318;1188;21867;-60
2022/08/14 04:01:57;;;;;;;18.60;15.00;;;;;;;23.97;61.01;99623.27;117360;1186;23472;-70
2022/08/14 04:04:30;;;;;;;18.10;15.40;;;;;;;24.00;61.24;99623.58;117134;1187;21839;-70
2022/08/14 04:06:59;;;;;;;19.10;16.30;;;;;;;24.02;61.30;99624.33;117227;1188;22920;-59
2022/08/14 04:09:26;;;;;;;18.50;15.70;;;;;;;24.07;61.46;99630.86;117411;1185;21883;-70
2022/08/14 04:11:54;;;;;;;19.70;16.40;;;;;;;24.15;61.43;99632.92;117351;1182;21963;-60
2022/08/14 04:14:22;;;;;;;17.80;16.00;;;;;;;24.21;61.44;99631.91;117396;1185;21918;-70
2022/08/14 04:16:49;;;;;;;18.60;16.40;;;;;;;24.30;61.34;99634.08;117129;1188;21858;-70
2022/08/14 04:19:19;;;;;;;22.20;17.60;;;;;;;24.38;61.47;99628.60;117396;1183;21961;-60
2022/08/14 04:21:47;;;;;;;19.90;16.50;;;;;;;24.46;61.63;99621.11;117138;1188;21961;-69
2022/08/14 04:24:32;;;;;;;21.00;17.10;;;;;;;24.55;61.57;99620.91;117515;1187;21864;-70
2022/08/14 04:27:11;;;;;;;27.10;16.70;;;;;;;24.65;61.47;99620.06;117361;1185;21927;-70
2022/08/14 04:29:42;;;;;;;20.70;16.10;;;;;;;24.75;61.58;99623.57;117371;1183;21854;-59
2022/08/14 04:32:11;;;;;;;22.60;16.20;;;;;;;24.86;61.54;99619.98;117127;1188;23001;-70
2022/08/14 04:35:01;;;;;;;18.20;14.80;;;;;;;25.01;61.55;99620.72;117109;1188;23027;-63
2022/08/14 04:46:14;;;;;;;17.10;14.80;;;;;;;25.79;60.52;99618.84;117131;1183;22950;-63
2022/08/14 04:49:03;;;;;;;26.20;15.40;;;;;;;26.00;60.80;99622.60;118559;1183;21776;-61
2022/08/14 04:51:33;;;;;;;22.30;15.80;;;;;;;26.17;60.62;99628.70;117576;1186;21945;-60
2022/08/14 04:54:21;;;;;;;19.10;15.30;;;;;;;26.24;60.53;99625.70;117703;1183;21841;-61
2022/08/14 04:56:50;;;;;;;21.70;16.30;;;;;;;26.29;60.53;99629.58;118412;1185;21856;-61
2022/08/14 04:59:20;;;;;;;25.70;15.60;;;;;;;26.35;60.42;99638.70;117119;1187;22239;-60
2022/08/14 05:01:47;;;;;;;20.30;15.80;;;;;;;26.42;60.35;99642.77;118588;1186;22322;-59
2022/08/14 05:04:23;;;;;;;28.00;16.60;;;;;;;26.52;60.31;99645.59;117229;1185;21855;-69
2022/08/14 05:06:52;;;;;;;20.00;16.00;;;;;;;26.61;60.23;99648.42;117218;1189;23599;-69
2022/08/14 05:09:24;;;;;;;19.10;16.10;;;;;;;26.70;60.17;99652.09;117201;1186;22323;-69
2022/08/14 05:11:57;;;;;;;21.20;16.50;;;;;;;26.79;60.09;99653.69;117200;1188;23072;-59
2022/08/14 05:14:46;;;;;;;19.20;15.40;;;;;;;26.88;60.06;99655.34;117130;1182;22632;-67
2022/08/14 05:17:26;;;;;;;23.30;19.10;;;;;;;26.96;59.90;99650.09;117311;1186;22922;-68
2022/08/14 05:20:11;;;;;;;26.20;16.70;;;;;;;27.04;59.99;99653.23;117190;1185;21860;-60
2022/08/14 05:22:58;;;;;;;21.50;16.60;;;;;;;27.15;60.14;99648.60;117086;1186;22954;-69
2022/08/14 05:25:27;;;;;;;25.20;17.20;;;;;;;27.25;60.27;99646.94;117163;1187;22915;-68
2022/08/14 05:28:23;;;;;;;32.40;19.40;;;;;;;27.38;60.09;99648.00;117185;1186;21863;-59
2022/08/14 05:30:56;;;;;;;22.90;16.00;;;;;;;27.55;60.03;99650.73;117102;1182;23557;-71
2022/08/14 05:33:25;;;;;;;29.50;19.70;;;;;;;27.79;59.98;99646.36;117098;1185;21896;-71
2022/08/14 05:35:59;;;;;;;27.40;17.60;;;;;;;28.06;60.13;99648.04;117163;1186;21851;-71
2022/08/14 05:38:28;;;;;;;21.00;14.00;;;;;;;28.38;59.90;99653.08;117138;1184;21848;-69
2022/08/14 05:40:58;;;;;;;19.20;14.00;;;;;;;28.70;59.56;99654.66;117163;1184;21858;-70
2022/08/14 05:43:25;;;;;;;24.00;14.00;;;;;;;28.97;59.32;99650.13;117122;1186;22836;-64
2022/08/14 05:46:11;;;;;;;20.00;13.90;;;;;;;29.25;58.83;99653.08;117162;1183;21856;-70
2022/08/14 05:48:41;;;;;;;23.90;12.80;;;;;;;29.50;58.41;99649.28;117174;1190;21911;-62
2022/08/14 05:51:09;;;;;;;22.50;13.90;;;;;;;29.69;58.27;99645.30;117142;1186;21858;-62
2022/08/14 05:53:36;;;;;;;22.50;13.50;;;;;;;29.85;58.38;99644.76;117121;1189;21886;-72
2022/08/14 05:56:08;;;;;;;23.80;14.80;;;;;;;30.04;58.16;99640.17;117117;1185;21858;-70
2022/08/14 05:58:36;;;;;;;19.10;13.40;;;;;;;30.22;57.77;99631.10;117118;1185;23555;-71
2022/08/14 06:01:08;;;;;;;26.00;14.40;;;;;;;30.39;57.40;99627.01;117115;1185;24240;-61
2022/08/14 06:03:35;;;;;;;28.80;14.30;;;;;;;30.57;57.32;99620.19;117190;1185;21862;-71
2022/08/14 06:06:06;;;;;;;25.20;13.80;;;;;;;30.74;57.21;99616.48;117055;1188;23024;-70
2022/08/14 06:08:33;;;;;;;19.90;13.40;;;;;;;30.92;57.02;99615.27;117146;1187;22323;-68
2022/08/14 06:11:07;;;;;;;19.40;12.20;;;;;;;31.09;56.79;99617.53;117128;1186;23453;-72
2022/08/14 06:13:37;;;;;;;17.30;12.20;;;;;;;31.26;56.51;99625.36;117120;1186;21925;-71
2022/08/14 06:16:14;;;;;;;22.20;12.30;;;;;;;31.40;56.16;99622.27;117114;1182;21859;-62
2022/08/14 06:18:46;;;;;;;20.40;12.50;;;;;;;31.51;56.03;99617.55;117175;1188;22982;-70
2022/08/14 06:21:14;;;;;;;;;;;;;;;31.63;55.75;99614.36;117143;1182;21839;-62
2022/08/14 06:23:43;;;;;;;22.80;11.70;;;;;;;31.73;55.72;99615.33;117256;1187;21891;-72
2022/08/14 06:26:14;;;;;;;17.30;12.20;;;;;;;31.87;55.62;99614.90;117138;1187;21864;-71
2022/08/14 06:28:46;;;;;;;19.40;11.30;;;;;;;32.01;55.45;99613.31;117175;1187;21887;-70
2022/08/14 06:31:19;;;;;;;19.70;11.00;;;;;;;32.15;55.31;99613.98;117088;1182;21877;-71
2022/08/14 06:33:46;;;;;;;19.70;12.30;;;;;;;32.30;55.04;99616.48;117207;1184;23596;-59
2022/08/14 06:36:35;;;;;;;20.10;13.10;;;;;;;32.43;54.88;99618.70;117137;1189;21902;-60
2022/08/14 06:39:02;;;;;;;20.00;11.20;;;;;;;32.46;54.87;99621.27;117207;1182;23599;-67
2022/08/14 06:41:35;;;;;;;25.50;12.50;;;;;;;32.54;54.68;99619.12;117092;1188;23557;-68
2022/08/14 06:44:23;;;;;;;18.10;10.70;;;;;;;32.64;54.30;99623.76;117118;1188;22928;-66
2022/08/14 06:47:00;;;;;;;18.10;10.80;;;;;;;32.74;54.36;99621.73;117443;1186;21857;-67
2022/08/14 06:49:27;;;;;;;23.90;12.40;;;;;;;32.84;53.84;99621.69;117132;1187;22967;-66
2022/08/14 06:51:56;;;;;;;20.10;11.00;;;;;;;32.83;54.03;99629.78;119419;1185;21808;-68
2022/08/14 06:54:23;;;;;;;21.70;11.10;;;;;;;32.79;54.04;99624.80;119173;1183;21804;-68
2022/08/14 06:56:57;;;;;;;24.00;11.50;;;;;;;32.78;54.02;99633.17;119211;1186;21820;-61
2022/08/14 06:59:24;;;;;;;17.00;11.30;;;;;;;32.80;53.86;99635.16;117892;1186;22327;-67
2022/08/14 07:07:24;;;;;;;22.80;12.10;;;;;;;32.72;53.85;99638.05;118618;1182;23373;-68
2022/08/14 07:09:54;;;;;;;20.90;12.20;;;;;;;32.89;53.70;99636.83;117265;1183;21867;-60
2022/08/14 07:12:22;;;;;;;25.10;13.30;;;;;;;32.91;53.63;99633.89;117267;1186;23545;-67
2022/08/14 07:15:09;;;;;;;21.30;11.80;;;;;;;32.96;53.64;99629.18;117061;1187;21867;-61
2022/08/14 07:17:45;;;;;;;26.10;12.90;;;;;;;33.02;53.49;99629.56;117451;1187;22929;-67
2022/08/14 07:20:19;;;;;;;20.70;12.00;;;;;;;33.14;53.52;99623.77;117089;1187;21857;-68
2022/08/14 07:22:59;;;;;;;25.90;11.80;;;;;;;33.33;53.50;99623.46;117120;1186;21877;-67
2022/08/14 07:25:34;;;;;;;18.30;10.30;;;;;;;33.56;53.30;99620.91;117141;1188;21857;-61
2022/08/14 07:28:14;;;;;;;21.60;10.20;;;;;;;33.80;53.02;99620.39;117103;1186;21891;-68
2022/08/14 07:30:47;;;;;;;20.50;10.20;;;;;;;34.06;52.84;99616.17;116994;1184;21861;-60
2022/08/14 07:33:18;;;;;;;19.30;9.20;;;;;;;34.32;52.39;99611.64;117162;1185;22150;-68
2022/08/14 07:35:50;;;;;;;18.60;9.30;;;;;;;34.51;51.94;99612.57;117101;1187;23444;-68
2022/08/14 07:38:26;;;;;;;17.00;8.90;;;;;;;34.64;51.70;99616.16;116987;1187;21980;-67
2022/08/14 07:41:04;;;;;;;17.90;9.00;;;;;;;34.79;51.72;99613.57;117044;1182;23724;-61
2022/08/14 07:43:41;;;;;;;18.80;9.40;;;;;;;34.92;51.72;99605.30;117107;1189;22105;-61
2022/08/14 07:46:09;;;;;;;20.30;9.40;;;;;;;35.04;51.56;99609.52;117149;1186;23499;-61
2022/08/14 07:48:39;;;;;;;20.50;9.90;;;;;;;35.24;51.00;99610.16;117212;1186;21891;-61
2022/08/14 07:51:07;;;;;;;18.50;9.00;;;;;;;35.47;50.97;99610.88;117099;1187;21857;-61
2022/08/14 07:53:37;;;;;;;;;;;;;;;35.66;50.81;99609.90;117090;1186;22932;-60
2022/08/14 07:56:09;;;;;;;23.50;10.30;;;;;;;35.83;51.03;99611.91;117063;1188;22648;-61
2022/08/14 07:58:57;;;;;;;18.80;9.80;;;;;;;35.98;50.66;99615.55;117149;1183;22257;-66
2022/08/14 08:01:25;;;;;;;18.40;10.00;;;;;;;36.07;50.19;99617.77;117127;1188;21896;-68
2022/08/14 08:03:52;;;;;;;23.70;12.20;;;;;;;36.13;50.10;99617.77;117080;1185;23576;-61
2022/08/14 08:06:25;;;;;;;29.20;13.10;;;;;;;36.16;49.76;99612.50;117045;1188;22997;-67
2022/08/14 08:08:54;;;;;;;17.70;10.80;;;;;;;36.14;49.73;99609.66;117103;1187;21887;-67
2022/08/14 08:11:32;;;;;;;23.20;11.10;;;;;;;36.16;49.50;99606.69;117138;1186;23549;-68
2022/08/14 08:14:06;;;;;;;16.40;9.70;;;;;;;36.26;49.36;99607.94;117183;1188;21855;-67
2022/08/14 08:16:44;;;;;;;15.30;9.90;;;;;;;36.36;49.17;99605.52;117097;1186;24246;-67
2022/08/14 08:19:11;;;;;;;17.50;10.10;;;;;;;36.47;49.26;99607.70;117187;1185;23510;-61
2022/08/14 08:21:40;;;;;;;21.00;10.40;;;;;;;36.64;48.97;99609.22;117428;1186;24226;-61
2022/08/14 08:24:10;;;;;;;17.30;10.30;;;;;;;36.85;48.76;99613.15;117353;1186;21852;-67
2022/08/14 08:26:45;;;;;;;20.40;9.90;;;;;;;37.06;48.72;99609.80;117307;1186;21849;-67
2022/08/14 08:29:20;;;;;;;19.20;10.30;;;;;;;37.20;48.27;99601.10;117315;1185;23516;-67
2022/08/14 08:31:54;;;;;;;17.00;10.30;;;;;;;37.29;47.85;99603.15;117089;1187;22050;-67
2022/08/14 08:34:21;;;;;;;20.40;10.00;;;;;;;37.45;47.76;99602.80;117128;1188;21966;-67
2022/08/14 08:36:49;;;;;;;18.30;9.90;;;;;;;37.66;47.51;99602.20;117138;1187;21864;-61
2022/08/14 08:39:16;;;;;;;16.40;9.80;;;;;;;37.85;47.28;99603.48;117320;1188;22935;-65
2022/08/14 08:41:48;;;;;;;22.40;9.70;;;;;;;37.99;46.90;99603.23;117281;1185;22989;-68
2022/08/14 08:44:18;;;;;;;;;;;;;;;38.14;46.88;99601.23;117154;1187;21914;-67
2022/08/14 08:47:04;;;;;;;21.20;9.60;;;;;;;38.42;46.44;99598.33;117327;1186;21859;-68
2022/08/14 08:49:41;;;;;;;14.30;9.50;;;;;;;38.67;46.16;99588.77;117355;1186;21950;-61
2022/08/14 08:52:27;;;;;;;16.20;9.50;;;;;;;38.92;45.77;99582.58;117091;1187;21903;-62
2022/08/14 08:54:58;;;;;;;14.60;8.40;;;;;;;39.20;45.37;99577.83;117170;1185;22832;-68
2022/08/14 08:57:34;;;;;;;19.00;9.20;;;;;;;39.43;44.76;99577.35;117316;1184;23475;-67
2022/08/14 09:00:13;;;;;;;16.20;9.80;;;;;;;39.59;44.20;99580.73;117366;1185;24159;-68
2022/08/14 09:02:53;;;;;;;21.00;9.80;;;;;;;39.65;43.79;99584.35;117110;1183;23251;-69
2022/08/14 09:05:22;;;;;;;16.10;8.80;;;;;;;39.67;44.19;99584.11;117134;1185;22676;-69
2022/08/14 09:07:49;;;;;;;15.30;8.30;;;;;;;39.78;44.24;99581.41;117368;1181;21869;-68
2022/08/14 09:10:22;;;;;;;12.20;8.00;;;;;;;39.89;43.53;99582.52;117094;1187;21860;-68
2022/08/14 09:12:54;;;;;;;15.50;8.70;;;;;;;39.98;43.37;99580.14;117363;1186;22956;-69
2022/08/14 09:15:21;;;;;;;15.70;9.70;;;;;;;40.06;43.28;99576.05;117130;1187;22010;-69
2022/08/14 09:17:49;;;;;;;17.00;8.30;;;;;;;40.11;43.76;99578.61;117069;1184;21868;-69
2022/08/14 09:20:17;;;;;;;12.40;8.20;;;;;;;40.09;44.54;99578.38;117134;1188;21860;-70
2022/08/14 09:22:57;;;;;;;16.20;8.40;;;;;;;39.99;43.85;99573.96;117077;1188;22852;-69
2022/08/14 09:25:24;;;;;;;13.10;8.70;;;;;;;39.96;43.37;99573.17;117111;1186;22687;-69
2022/08/14 09:28:11;;;;;;;12.80;8.10;;;;;;;39.98;43.35;99569.38;117042;1183;21856;-69
2022/08/14 09:30:53;;;;;;;15.20;8.40;;;;;;;40.02;43.08;99571.52;117055;1184;21861;-69
2022/08/14 09:33:51;;;;;;;15.30;7.90;;;;;;;40.14;42.97;99562.55;117112;1183;21878;-69
2022/08/14 09:36:28;;;;;;;16.60;7.20;;;;;;;40.38;42.42;99560.21;117067;1188;22050;-69
2022/08/14 09:39:06;;;;;;;13.60;7.80;;;;;;;40.61;41.86;99559.90;117294;1188;23558;-69
2022/08/14 09:42:02;;;;;;;16.90;8.00;;;;;;;40.66;41.19;99561.82;117094;1186;21862;-70
2022/08/14 09:45:27;;;;;;;11.80;8.00;;;;;;;40.64;41.19;99559.20;117272;1186;21943;-70
2022/08/14 09:48:13;;;;;;;14.50;7.90;;;;;;;40.59;41.09;99562.61;116676;1192;21871;-69
2022/08/14 09:50:59;;;;;;;16.50;7.90;;;;;;;40.54;40.93;99557.52;116860;1189;21868;-63
2022/08/14 09:53:37;;;;;;;14.70;7.50;;;;;;;40.59;41.00;99561.34;116932;1184;22948;-62
2022/08/14 09:56:24;;;;;;;14.30;7.40;;;;;;;40.69;40.64;99559.52;117311;1186;21880;-62
2022/08/14 09:58:59;;;;;;;10.60;7.60;;;;;;;40.87;40.40;99555.16;117349;1186;22462;-69
2022/08/14 10:01:34;;;;;;;9.80;7.30;;;;;;;41.06;40.26;99555.98;117278;1183;22910;-62
2022/08/14 10:04:05;;;;;;;12.40;7.20;;;;;;;41.24;40.06;99559.81;117195;1187;21867;-69
2022/08/14 10:06:52;;;;;;;;;;;;;;;41.45;39.51;99560.11;117098;1183;23449;-65
2022/08/14 10:09:19;;;;;;;13.50;7.40;;;;;;;41.61;38.92;99562.08;117119;1182;24162;-69
2022/08/14 10:11:54;;;;;;;11.50;6.90;;;;;;;41.64;39.12;99558.66;117351;1186;21908;-69
2022/08/14 10:14:31;;;;;;;8.60;6.90;;;;;;;41.69;38.79;99558.69;117299;1185;21867;-69
2022/08/14 10:17:03;;;;;;;13.50;7.20;;;;;;;41.69;40.10;99555.02;117312;1186;21963;-70
2022/08/14 10:19:33;;;;;;;16.20;7.30;;;;;;;41.62;39.55;99556.19;117084;1185;21868;-64
2022/08/14 10:22:09;;;;;;;17.30;7.10;;;;;;;41.60;39.49;99553.60;117385;1186;22993;-63
2022/08/14 10:24:56;;;;;;;11.90;6.20;;;;;;;41.65;38.76;99551.60;117318;1182;21848;-69
2022/08/14 10:27:26;;;;;;;13.40;6.20;;;;;;;41.73;38.19;99554.27;117330;1188;21864;-62
2022/08/14 10:30:03;;;;;;;11.30;6.20;;;;;;;41.86;37.92;99549.70;117233;1186;21865;-69
2022/08/14 10:32:47;;;;;;;7.80;5.40;;;;;;;41.98;37.47;99551.33;117135;1186;21935;-69
2022/08/14 10:35:18;;;;;;;8.40;5.40;;;;;;;42.07;37.28;99551.85;117087;1187;21885;-69
2022/08/14 10:37:51;;;;;;;10.10;5.10;;;;;;;42.15;36.96;99542.48;117371;1182;23482;-63
2022/08/14 10:40:29;;;;;;;11.00;5.30;;;;;;;42.16;36.56;99543.05;117247;1186;21861;-69
2022/08/14 10:43:26;;;;;;;7.50;4.70;;;;;;;42.26;36.57;99543.23;117146;1183;22899;-63
2022/08/14 10:45:59;;;;;;;10.00;5.30;;;;;;;42.46;36.43;99535.89;117208;1186;21860;-63
2022/08/14 10:48:56;;;;;;;9.80;5.70;;;;;;;42.62;36.00;99529.96;117055;1187;22434;-63
2022/08/14 10:51:25;;;;;;;12.30;5.50;;;;;;;42.75;35.81;99529.67;117207;1185;23636;-63
2022/08/14 10:53:57;;;;;;;8.60;5.40;;;;;;;42.85;35.45;99527.57;117325;1183;23002;-63
2022/08/14 10:56:34;;;;;;;10.50;5.00;;;;;;;42.97;35.32;99531.34;117286;1186;21863;-63
2022/08/14 10:59:06;;;;;;;9.00;6.00;;;;;;;43.07;35.15;99525.06;117302;1185;21878;-69
2022/08/14 11:01:37;;;;;;;8.10;4.80;;;;;;;43.15;34.98;99522.41;117164;1185;22935;-69
2022/08/14 11:04:27;;;;;;;7.00;5.50;;;;;;;43.26;34.91;99522.46;117114;1187;21851;-63
2022/08/14 11:06:56;;;;;;;6.60;5.30;;;;;;;43.41;34.47;99521.61;117201;1186;22142;-69
2022/08/14 11:09:23;;;;;;;8.40;5.30;;;;;;;43.52;34.34;99520.91;117242;1186;22925;-63
2022/08/14 11:11:57;;;;;;;10.40;6.30;;;;;;;43.52;34.49;99520.29;117233;1184;22154;-69
2022/08/14 11:14:55;;;;;;;9.70;5.10;;;;;;;43.48;34.28;99511.34;117167;1187;21858;-69
2022/08/14 11:17:29;;;;;;;11.60;5.50;;;;;;;43.48;34.04;99509.62;117032;1187;22338;-63
2022/08/14 11:19:59;;;;;;;8.20;5.70;;;;;;;43.48;33.06;99506.86;117287;1186;22925;-63
2022/08/14 11:22:28;;;;;;;9.90;5.90;;;;;;;43.43;33.54;99501.81;117230;1184;23082;-69
2022/08/14 11:25:15;;;;;;;6.70;4.80;;;;;;;43.47;33.58;99499.14;117128;1186;23455;-70
2022/08/14 11:27:43;;;;;;;12.20;5.80;;;;;;;43.55;33.39;99503.77;117165;1184;22731;-70
2022/08/14 11:30:13;;;;;;;13.80;5.60;;;;;;;43.64;33.21;99499.29;117373;1183;23261;-64
2022/08/14 11:33:02;;;;;;;9.70;5.10;;;;;;;43.68;33.07;99497.98;117080;1186;22632;-63
2022/08/14 11:35:31;;;;;;;9.70;4.90;;;;;;;43.71;32.92;99493.52;117336;1187;22928;-63
2022/08/14 11:38:12;;;;;;;8.70;5.00;;;;;;;43.80;32.75;99488.98;117242;1185;21855;-64
2022/08/14 11:40:42;;;;;;;11.20;5.40;;;;;;;43.85;32.53;99482.29;117015;1190;21915;-70
2022/08/14 11:43:13;;;;;;;10.70;5.50;;;;;;;43.73;32.76;99483.55;117215;1186;22001;-65
2022/08/14 11:45:44;;;;;;;7.30;4.60;;;;;;;43.78;32.50;99481.59;117259;1186;22386;-64
2022/08/14 11:48:16;;;;;;;9.90;4.90;;;;;;;43.68;31.28;99468.30;117011;1187;22596;-64
2022/08/14 11:51:03;;;;;;;5.80;5.00;;;;;;;43.61;32.11;99460.19;117170;1182;21894;-69
2022/08/14 11:53:34;;;;;;;7.30;5.20;;;;;;;43.56;32.13;99454.54;117101;1188;22822;-70
2022/08/14 11:56:07;;;;;;;8.20;5.60;;;;;;;43.44;32.03;99450.53;117107;1185;21892;-63
2022/08/14 11:58:37;;;;;;;7.40;5.40;;;;;;;43.34;31.86;99449.36;117210;1186;22658;-64
2022/08/14 12:01:08;;;;;;;5.10;4.40;;;;;;;43.25;31.71;99436.85;117337;1184;23015;-63
2022/08/14 12:03:42;;;;;;;9.60;5.10;;;;;;;43.13;31.29;99437.73;117348;1186;21964;-63
2022/08/14 12:06:19;;;;;;;8.20;4.90;;;;;;;43.01;31.23;99434.93;117342;1188;21857;-70
2022/08/14 12:09:05;;;;;;;6.10;4.80;;;;;;;42.76;31.50;99433.42;117355;1186;22925;-72